createdAt,value
2023-04-09T00:01:40.321Z,102222.44
2023-04-09T00:04:06.778Z,102215.63
2023-04-09T00:06:33.206Z,102215.81
2023-04-09T00:08:59.675Z,102212.69
2023-04-09T00:11:26.112Z,102211.81
2023-04-09T00:13:52.579Z,102208.44
2023-04-09T00:16:19.241Z,102215.91
2023-04-09T00:18:45.737Z,102213.19
2023-04-09T00:21:12.603Z,102219.56
2023-04-09T00:23:39.109Z,102216.22
2023-04-09T00:26:05.511Z,102213.16
2023-04-09T00:28:32.789Z,102210.06
2023-04-09T00:30:59.221Z,102213.97
2023-04-09T00:33:25.810Z,102220.78
2023-04-09T00:35:52.371Z,102221.78
2023-04-09T00:38:19.216Z,102216.81
2023-04-09T00:40:49.639Z,102218.31
2023-04-09T00:43:16.722Z,102211.03
2023-04-09T00:45:44.045Z,102209.44
2023-04-09T00:48:12.016Z,102215.47
2023-04-09T00:50:38.526Z,102214.88
2023-04-09T00:53:05.946Z,102219.69
2023-04-09T00:55:32.950Z,102217.19
2023-04-09T00:57:59.501Z,102207.91
2023-04-09T01:00:27.587Z,102204.78
2023-04-09T01:02:57.722Z,102208.75
2023-04-09T01:05:31.585Z,102213.34
2023-04-09T01:08:08.427Z,102214.97
2023-04-09T01:10:43.116Z,102216.44
2023-04-09T01:13:22.109Z,102209.16
2023-04-09T01:15:53.901Z,102214.78
2023-04-09T01:18:31.124Z,102213.56
2023-04-09T01:21:09.580Z,102203.78
2023-04-09T01:24:02.572Z,102211.47
2023-04-09T01:27:03.931Z,102209.69
2023-04-09T01:29:46.580Z,102204.25
2023-04-09T01:32:16.746Z,102207.56
2023-04-09T01:34:46.409Z,102203.16
2023-04-09T01:37:15.730Z,102204.44
2023-04-09T01:39:42.890Z,102200.00
2023-04-09T01:42:13.125Z,102196.28
2023-04-09T01:44:42.144Z,102196.47
2023-04-09T01:47:09.167Z,102191.47
2023-04-09T01:49:36.173Z,102192.91
2023-04-09T01:52:03.181Z,102191.47
2023-04-09T01:54:29.970Z,102190.78
2023-04-09T01:56:58.151Z,102193.00
2023-04-09T01:59:25.213Z,102185.16
2023-04-09T02:02:01.279Z,102195.06
2023-04-09T02:04:35.815Z,102197.31
2023-04-09T02:07:07.924Z,102183.66
2023-04-09T02:09:38.553Z,102186.81
2023-04-09T02:12:10.636Z,102182.78
2023-04-09T02:15:03.003Z,102182.78
2023-04-09T02:17:30.023Z,102191.28
2023-04-09T02:19:57.191Z,102195.44
2023-04-09T02:22:23.641Z,102182.00
2023-04-09T02:24:50.049Z,102180.38
2023-04-09T02:27:17.048Z,102196.28
2023-04-09T02:29:44.127Z,102190.91
2023-04-09T02:32:13.326Z,102185.16
2023-04-09T02:34:39.687Z,102181.81
2023-04-09T02:37:06.083Z,102183.28
2023-04-09T02:39:32.868Z,102185.19
2023-04-09T02:41:59.290Z,102188.91
2023-04-09T02:44:26.864Z,102173.09
2023-04-09T02:46:53.724Z,102172.47
2023-04-09T02:49:20.201Z,102181.81
2023-04-09T02:51:47.036Z,102175.41
2023-04-09T02:54:14.052Z,102177.66
2023-04-09T02:56:40.479Z,102163.78
2023-04-09T02:59:07.059Z,102167.88
2023-04-09T03:01:34.136Z,102163.31
2023-04-09T03:04:01.757Z,102164.56
2023-04-09T03:06:28.537Z,102157.22
2023-04-09T03:08:55.020Z,102161.97
2023-04-09T03:11:21.488Z,102165.50
2023-04-09T03:13:48.072Z,102159.34
2023-04-09T03:16:15.081Z,102164.25
2023-04-09T03:18:42.156Z,102162.09
2023-04-09T03:21:09.239Z,102160.22
2023-04-09T03:23:43.769Z,102155.44
2023-04-09T03:26:10.576Z,102164.75
2023-04-09T03:28:45.975Z,102162.28
2023-04-09T03:31:14.305Z,102162.28
2023-04-09T03:33:43.309Z,102167.66
2023-04-09T03:36:10.690Z,102172.00
2023-04-09T03:39:00.279Z,102160.78
2023-04-09T03:41:32.711Z,102161.38
2023-04-09T03:44:03.155Z,102163.88
2023-04-09T03:46:36.249Z,102163.91
2023-04-09T03:49:03.870Z,102165.88
2023-04-09T03:51:38.638Z,102155.66
2023-04-09T03:54:05.158Z,102158.81
2023-04-09T03:56:32.891Z,102153.41
2023-04-09T03:59:00.108Z,102157.34
2023-04-09T04:01:35.423Z,102155.66
2023-04-09T04:04:02.341Z,102156.91
2023-04-09T04:06:35.600Z,102157.91
2023-04-09T04:09:12.235Z,102155.53
2023-04-09T04:11:44.141Z,102158.16
2023-04-09T04:14:11.076Z,102157.31
2023-04-09T04:16:43.696Z,102166.81
2023-04-09T04:19:13.278Z,102160.84
2023-04-09T04:21:45.314Z,102160.59
2023-04-09T04:24:12.041Z,102154.91
2023-04-09T04:26:40.165Z,102170.75
2023-04-09T04:29:07.541Z,102160.00
2023-04-09T04:31:55.627Z,102169.81
2023-04-09T04:34:24.983Z,102162.19
2023-04-09T04:37:00.151Z,102163.41
2023-04-09T04:39:31.692Z,102174.16
2023-04-09T04:42:06.023Z,102176.00
2023-04-09T04:44:32.924Z,102172.31
2023-04-09T04:47:09.505Z,102178.88
2023-04-09T04:49:36.094Z,102179.94
2023-04-09T04:52:05.575Z,102178.31
2023-04-09T04:54:33.932Z,102177.13
2023-04-09T04:57:01.140Z,102177.56
2023-04-09T04:59:40.615Z,102186.63
2023-04-09T05:02:09.658Z,102174.22
2023-04-09T05:04:46.777Z,102183.44
2023-04-09T05:07:16.845Z,102189.22
2023-04-09T05:09:49.890Z,102188.75
2023-04-09T05:12:17.879Z,102185.88
2023-04-09T05:14:48.569Z,102189.13
2023-04-09T05:17:15.895Z,102194.56
2023-04-09T05:19:45.135Z,102182.63
2023-04-09T05:22:13.614Z,102192.56
2023-04-09T05:24:40.030Z,102195.06
2023-04-09T05:27:06.530Z,102189.81
2023-04-09T05:29:32.980Z,102186.38
2023-04-09T05:32:00.649Z,102189.34
2023-04-09T05:34:31.838Z,102189.59
2023-04-09T05:36:59.160Z,102194.41
2023-04-09T05:39:26.090Z,102196.50
2023-04-09T05:41:53.041Z,102201.75
2023-04-09T05:44:31.708Z,102204.88
2023-04-09T05:47:08.906Z,102203.88
2023-04-09T05:49:41.793Z,102204.94
2023-04-09T05:52:12.615Z,102199.81
2023-04-09T05:54:41.020Z,102200.75
2023-04-09T05:57:09.250Z,102204.19
2023-04-09T05:59:38.380Z,102206.63
2023-04-09T06:02:05.071Z,102195.00
2023-04-09T06:04:32.968Z,102199.63
2023-04-09T06:07:00.430Z,102204.75
2023-04-09T06:09:27.875Z,102205.72
2023-04-09T06:11:54.310Z,102204.75
2023-04-09T06:14:21.003Z,102205.78
2023-04-09T06:16:47.402Z,102208.28
2023-04-09T06:19:16.219Z,102204.44
2023-04-09T06:21:43.325Z,102209.00
2023-04-09T06:24:09.726Z,102198.38
2023-04-09T06:26:36.511Z,102212.97
2023-04-09T06:29:03.293Z,102217.06
2023-04-09T06:31:29.949Z,102212.38
2023-04-09T06:33:56.767Z,102211.69
2023-04-09T06:36:23.268Z,102218.34
2023-04-09T06:38:49.670Z,102222.19
2023-04-09T06:41:16.196Z,102226.78
2023-04-09T06:43:43.221Z,102226.03
2023-04-09T06:46:09.695Z,102224.97
2023-04-09T06:48:36.417Z,102230.28
2023-04-09T06:51:02.927Z,102229.34
2023-04-09T06:53:30.164Z,102223.75
2023-04-09T06:55:57.282Z,102221.44
2023-04-09T06:58:23.770Z,102223.56
2023-04-09T07:00:50.254Z,102232.75
2023-04-09T07:03:17.108Z,102229.63
2023-04-09T07:05:44.269Z,102236.19
2023-04-09T07:08:11.901Z,102239.84
2023-04-09T07:10:38.663Z,102227.47
2023-04-09T07:13:05.321Z,102225.53
2023-04-09T07:15:31.944Z,102228.47
2023-04-09T07:17:58.351Z,102228.16
2023-04-09T07:20:24.793Z,102229.22
2023-04-09T07:22:51.262Z,102235.03
2023-04-09T07:25:17.751Z,102238.84
2023-04-09T07:27:44.482Z,102226.06
2023-04-09T07:30:11.167Z,102241.03
2023-04-09T07:32:38.084Z,102241.72
2023-04-09T07:35:07.873Z,102236.78
2023-04-09T07:37:34.269Z,102241.38
2023-04-09T07:40:01.590Z,102239.13
2023-04-09T07:42:28.257Z,102237.06
2023-04-09T07:44:55.065Z,102241.03
2023-04-09T07:47:21.650Z,102236.47
2023-04-09T07:49:48.161Z,102237.31
2023-04-09T07:52:15.454Z,102235.25
2023-04-09T07:54:42.250Z,102241.72
2023-04-09T07:57:08.660Z,102233.63
2023-04-09T07:59:36.227Z,102231.78
2023-04-09T08:02:03.763Z,102241.31
2023-04-09T08:04:31.976Z,102241.31
2023-04-09T08:06:58.443Z,102237.81
2023-04-09T08:09:24.872Z,102223.50
2023-04-09T08:11:51.409Z,102230.94
2023-04-09T08:14:18.565Z,102229.09
2023-04-09T08:17:10.178Z,102229.31
2023-04-09T08:19:36.668Z,102229.50
2023-04-09T08:22:03.143Z,102235.13
2023-04-09T08:24:30.112Z,102233.41
2023-04-09T08:26:57.622Z,102235.28
2023-04-09T08:29:24.059Z,102238.16
2023-04-09T08:31:50.588Z,102236.66
2023-04-09T08:34:20.930Z,102235.63
2023-04-09T08:36:50.644Z,102239.59
2023-04-09T08:39:20.665Z,102241.44
2023-04-09T08:41:48.314Z,102240.81
2023-04-09T08:44:15.482Z,102238.69
2023-04-09T08:46:43.579Z,102238.38
2023-04-09T08:49:10.956Z,102242.06
2023-04-09T08:51:37.526Z,102241.44
2023-04-09T08:54:27.216Z,102239.53
2023-04-09T08:56:50.985Z,102241.16
2023-04-09T08:59:18.764Z,102240.00
2023-04-09T09:01:47.884Z,102231.44
2023-04-09T09:04:14.747Z,102242.16
2023-04-09T09:06:42.404Z,102234.91
2023-04-09T09:09:14.764Z,102235.28
2023-04-09T09:11:43.909Z,102232.69
2023-04-09T09:14:14.711Z,102228.69
2023-04-09T09:16:43.894Z,102231.56
2023-04-09T09:19:30.987Z,102225.25
2023-04-09T09:21:58.002Z,102238.50
2023-04-09T09:24:24.508Z,102235.69
2023-04-09T09:26:52.431Z,102227.34
2023-04-09T09:29:20.033Z,102237.34
2023-04-09T09:31:51.739Z,102235.34
2023-04-09T09:34:22.362Z,102240.34
2023-04-09T09:36:49.039Z,102232.44
2023-04-09T09:39:17.406Z,102236.16
2023-04-09T09:42:06.509Z,102239.41
2023-04-09T09:44:33.615Z,102235.34
2023-04-09T09:47:03.443Z,102237.84
2023-04-09T09:49:29.929Z,102233.81
2023-04-09T09:51:59.425Z,102233.06
2023-04-09T09:54:28.149Z,102231.09
2023-04-09T09:57:02.011Z,102228.75
2023-04-09T09:59:34.291Z,102235.72
2023-04-09T10:02:05.879Z,102227.72
2023-04-09T10:04:37.893Z,102225.38
2023-04-09T10:07:05.841Z,102226.91
2023-04-09T10:09:37.633Z,102231.81
2023-04-09T10:12:07.144Z,102221.03
2023-04-09T10:14:37.263Z,102226.38
2023-04-09T10:17:04.835Z,102221.41
2023-04-09T10:19:35.665Z,102212.03
2023-04-09T10:22:11.501Z,102219.13
2023-04-09T10:24:42.515Z,102214.97
2023-04-09T10:27:12.117Z,102206.28
2023-04-09T10:29:47.922Z,102207.91
2023-04-09T10:32:26.565Z,102200.25
2023-04-09T10:34:57.151Z,102194.25
2023-04-09T10:37:25.355Z,102197.81
2023-04-09T10:39:52.732Z,102189.56
2023-04-09T10:42:49.051Z,102190.75
2023-04-09T10:45:16.792Z,102187.34
2023-04-09T10:47:44.642Z,102180.91
2023-04-09T10:50:24.414Z,102184.50
2023-04-09T10:53:00.118Z,102187.19
2023-04-09T10:55:40.962Z,102192.03
2023-04-09T10:58:12.357Z,102189.44
2023-04-09T11:00:45.076Z,102190.38
2023-04-09T11:03:30.485Z,102182.13
2023-04-09T11:06:09.328Z,102178.31
2023-04-09T11:08:37.932Z,102179.72
2023-04-09T11:11:04.508Z,102166.13
2023-04-09T11:13:32.059Z,102168.53
2023-04-09T11:16:00.521Z,102169.28
2023-04-09T11:18:29.853Z,102158.88
2023-04-09T11:20:58.429Z,102160.94
2023-04-09T11:23:25.283Z,102154.06
2023-04-09T11:25:53.066Z,102160.44
2023-04-09T11:28:20.637Z,102160.13
2023-04-09T11:30:47.610Z,102163.25
2023-04-09T11:33:15.625Z,102165.63
2023-04-09T11:35:43.893Z,102155.63
2023-04-09T11:38:11.600Z,102152.41
2023-04-09T11:40:48.284Z,102157.94
2023-04-09T11:43:16.536Z,102157.88
2023-04-09T11:45:44.786Z,102160.59
2023-04-09T11:48:13.632Z,102154.16
2023-04-09T11:50:40.608Z,102158.06
2023-04-09T11:53:20.612Z,102150.91
2023-04-09T11:55:50.279Z,102149.84
2023-04-09T11:58:17.427Z,102143.50
2023-04-09T12:00:44.195Z,102148.34
2023-04-09T12:03:11.742Z,102144.72
2023-04-09T12:05:41.060Z,102146.16
2023-04-09T12:08:09.269Z,102149.72
2023-04-09T12:10:37.470Z,102147.50
2023-04-09T12:13:05.949Z,102151.25
2023-04-09T12:15:41.848Z,102146.72
2023-04-09T12:18:10.749Z,102155.69
2023-04-09T12:20:42.605Z,102161.75
2023-04-09T12:23:11.034Z,102154.09
2023-04-09T12:25:39.023Z,102152.53
2023-04-09T12:28:07.366Z,102142.66
2023-04-09T12:30:35.226Z,102146.03
2023-04-09T12:33:03.367Z,102143.03
2023-04-09T12:35:30.423Z,102150.66
2023-04-09T12:37:59.110Z,102144.53
2023-04-09T12:40:25.580Z,102141.50
2023-04-09T12:42:52.076Z,102138.91
2023-04-09T12:45:20.086Z,102132.69
2023-04-09T12:47:46.710Z,102134.19
2023-04-09T12:50:16.099Z,102128.34
2023-04-09T12:52:44.875Z,102126.41
2023-04-09T12:55:12.875Z,102130.13
2023-04-09T12:57:41.539Z,102134.91
2023-04-09T13:00:08.917Z,102130.56
2023-04-09T13:02:35.753Z,102131.78
2023-04-09T13:05:03.081Z,102128.56
2023-04-09T13:07:37.040Z,102123.47
2023-04-09T13:10:03.731Z,102125.38
2023-04-09T13:12:32.331Z,102122.94
2023-04-09T13:14:59.206Z,102119.22
2023-04-09T13:17:25.936Z,102119.50
2023-04-09T13:19:52.705Z,102118.56
2023-04-09T13:22:19.295Z,102120.00
2023-04-09T13:24:46.182Z,102111.25
2023-04-09T13:27:12.859Z,102110.66
2023-04-09T13:29:39.256Z,102105.75
2023-04-09T13:32:07.442Z,102106.38
2023-04-09T13:34:35.314Z,102107.06
2023-04-09T13:37:04.968Z,102094.75
2023-04-09T13:39:32.094Z,102095.66
2023-04-09T13:41:59.028Z,102093.66
2023-04-09T13:44:25.506Z,102087.63
2023-04-09T13:46:52.345Z,102087.31
2023-04-09T13:49:19.020Z,102079.53
2023-04-09T13:51:46.554Z,102077.94
2023-04-09T13:54:14.061Z,102084.66
2023-04-09T13:56:40.549Z,102074.22
2023-04-09T13:59:07.288Z,102079.59
2023-04-09T14:01:34.689Z,102072.16
2023-04-09T14:04:01.458Z,102075.69
2023-04-09T14:06:28.012Z,102069.22
2023-04-09T14:08:54.627Z,102071.09
2023-04-09T14:11:21.326Z,102067.59
2023-04-09T14:13:48.296Z,102071.72
2023-04-09T14:16:15.070Z,102075.53
2023-04-09T14:18:41.617Z,102073.03
2023-04-09T14:21:09.979Z,102080.06
2023-04-09T14:23:37.154Z,102068.94
2023-04-09T14:26:04.335Z,102072.88
2023-04-09T14:28:32.115Z,102071.84
2023-04-09T14:30:59.393Z,102067.72
2023-04-09T14:33:26.645Z,102055.66
2023-04-09T14:35:53.074Z,102053.22
2023-04-09T14:38:19.980Z,102050.28
2023-04-09T14:41:11.356Z,102042.78
2023-04-09T14:43:37.823Z,102038.97
2023-04-09T14:46:06.274Z,102043.19
2023-04-09T14:48:33.359Z,102042.16
2023-04-09T14:50:59.745Z,102042.84
2023-04-09T14:53:26.175Z,102041.22
2023-04-09T14:55:52.581Z,102042.84
2023-04-09T14:58:19.242Z,102028.03
2023-04-09T15:00:45.946Z,102030.50
2023-04-09T15:03:13.181Z,102032.44
2023-04-09T15:05:40.101Z,102029.41
2023-04-09T15:08:06.579Z,102031.06
2023-04-09T15:10:33.354Z,102027.13
2023-04-09T15:12:59.755Z,102031.06
2023-04-09T15:15:26.758Z,102027.19
2023-04-09T15:17:53.225Z,102021.63
2023-04-09T15:20:20.155Z,102019.91
2023-04-09T15:22:46.640Z,102019.66
2023-04-09T15:25:17.611Z,102020.94
2023-04-09T15:27:44.925Z,102020.06
2023-04-09T15:30:11.436Z,102011.13
2023-04-09T15:32:37.832Z,102016.03
2023-04-09T15:35:04.593Z,102016.84
2023-04-09T15:37:31.973Z,102002.91
2023-04-09T15:39:58.470Z,102005.97
2023-04-09T15:42:25.691Z,102014.78
2023-04-09T15:44:52.360Z,102008.16
2023-04-09T15:47:19.179Z,102004.41
2023-04-09T15:49:46.266Z,102005.63
2023-04-09T15:52:14.091Z,102002.19
2023-04-09T15:54:40.586Z,102000.22
2023-04-09T15:57:06.971Z,101998.88
2023-04-09T15:59:33.434Z,101997.28
2023-04-09T16:02:00.053Z,101991.63
2023-04-09T16:04:27.405Z,101989.16
2023-04-09T16:06:55.347Z,101989.75
2023-04-09T16:09:22.343Z,101992.25
2023-04-09T16:11:48.870Z,101990.84
2023-04-09T16:14:15.782Z,101992.38
2023-04-09T16:16:46.943Z,101990.72
2023-04-09T16:19:14.070Z,101986.22
2023-04-09T16:21:43.913Z,101986.31
2023-04-09T16:24:12.943Z,101989.06
2023-04-09T16:26:44.228Z,101981.59
2023-04-09T16:29:11.041Z,101994.34
2023-04-09T16:31:42.183Z,101992.66
2023-04-09T16:34:09.318Z,101985.59
2023-04-09T16:36:37.018Z,101988.66
2023-04-09T16:39:04.712Z,101983.81
2023-04-09T16:41:33.566Z,101975.31
2023-04-09T16:44:01.617Z,101977.56
2023-04-09T16:46:28.161Z,101981.34
2023-04-09T16:48:54.757Z,101976.44
2023-04-09T16:51:21.326Z,101980.41
2023-04-09T16:53:47.883Z,101972.59
2023-04-09T16:56:15.035Z,101978.31
2023-04-09T16:58:41.528Z,101979.00
2023-04-09T17:01:07.938Z,101983.81
2023-04-09T17:03:38.098Z,101977.56
2023-04-09T17:06:04.944Z,101976.53
2023-04-09T17:08:35.667Z,101981.97
2023-04-09T17:11:02.554Z,101984.94
2023-04-09T17:13:31.594Z,101977.56
2023-04-09T17:15:58.313Z,101978.63
2023-04-09T17:18:24.846Z,101978.53
2023-04-09T17:20:51.945Z,101979.84
2023-04-09T17:23:22.866Z,101972.47
2023-04-09T17:25:49.339Z,101977.06
2023-04-09T17:28:18.705Z,101971.53
2023-04-09T17:30:47.235Z,101973.94
2023-04-09T17:33:13.930Z,101969.75
2023-04-09T17:35:41.946Z,101966.09
2023-04-09T17:38:08.377Z,101968.19
2023-04-09T17:40:34.821Z,101964.81
2023-04-09T17:43:02.429Z,101950.22
2023-04-09T17:45:28.922Z,101959.13
2023-04-09T17:47:55.500Z,101964.72
2023-04-09T17:50:21.981Z,101962.00
2023-04-09T17:52:48.506Z,101966.25
2023-04-09T17:55:15.323Z,101971.53
2023-04-09T17:57:43.091Z,101974.41
2023-04-09T18:00:11.014Z,101973.47
2023-04-09T18:02:46.090Z,101971.16
2023-04-09T18:05:13.004Z,101968.56
2023-04-09T18:07:40.051Z,101967.91
2023-04-09T18:10:06.793Z,101967.78
2023-04-09T18:12:33.299Z,101968.53
2023-04-09T18:14:59.690Z,101968.66
2023-04-09T18:17:27.623Z,101968.00
2023-04-09T18:19:55.029Z,101961.16
2023-04-09T18:22:21.757Z,101965.31
2023-04-09T18:24:48.360Z,101959.69
2023-04-09T18:27:16.316Z,101961.94
2023-04-09T18:29:50.287Z,101965.88
2023-04-09T18:32:19.586Z,101966.84
2023-04-09T18:34:47.842Z,101960.81
2023-04-09T18:37:15.175Z,101967.78
2023-04-09T18:39:41.647Z,101966.88
2023-04-09T18:42:08.116Z,101973.34
2023-04-09T18:44:36.283Z,101966.41
2023-04-09T18:47:05.375Z,101973.59
2023-04-09T18:49:38.101Z,101970.53
2023-04-09T18:52:09.064Z,101975.03
2023-04-09T18:54:37.019Z,101973.03
2023-04-09T18:57:06.798Z,101978.13
2023-04-09T18:59:34.787Z,101977.19
2023-04-09T19:02:04.769Z,101974.09
2023-04-09T19:04:36.749Z,101976.81
2023-04-09T19:07:03.664Z,101970.09
2023-04-09T19:09:31.466Z,101971.38
2023-04-09T19:11:58.753Z,101971.84
2023-04-09T19:14:26.450Z,101972.31
2023-04-09T19:16:53.193Z,101967.38
2023-04-09T19:19:19.702Z,101970.78
2023-04-09T19:21:46.803Z,101972.78
2023-04-09T19:24:13.743Z,101982.28
2023-04-09T19:26:40.346Z,101973.31
2023-04-09T19:29:07.114Z,101974.28
2023-04-09T19:31:36.923Z,101978.63
2023-04-09T19:34:05.913Z,101982.94
2023-04-09T19:36:34.443Z,101979.13
2023-04-09T19:39:01.085Z,101973.09
2023-04-09T19:41:27.954Z,101983.19
2023-04-09T19:43:54.677Z,101984.94
2023-04-09T19:46:21.086Z,101974.84
2023-04-09T19:48:48.103Z,101979.53
2023-04-09T19:51:21.983Z,101983.81
2023-04-09T19:53:49.421Z,101983.88
2023-04-09T19:56:16.305Z,101986.88
2023-04-09T19:58:44.344Z,101984.88
2023-04-09T20:01:11.251Z,101977.78
2023-04-09T20:03:39.239Z,101981.53
2023-04-09T20:06:10.112Z,101986.41
2023-04-09T20:08:37.732Z,101981.72
2023-04-09T20:11:04.469Z,101989.53
2023-04-09T20:13:32.027Z,101989.97
2023-04-09T20:15:58.658Z,101988.16
2023-04-09T20:18:25.504Z,101986.72
2023-04-09T20:20:52.038Z,101992.56
2023-04-09T20:23:18.464Z,101992.19
2023-04-09T20:25:45.492Z,101983.84
2023-04-09T20:28:12.056Z,101986.78
2023-04-09T20:30:38.497Z,101988.66
2023-04-09T20:33:05.007Z,101987.41
2023-04-09T20:35:35.380Z,101987.03
2023-04-09T20:38:03.126Z,101986.50
2023-04-09T20:40:31.108Z,101981.31
2023-04-09T20:42:57.513Z,101983.19
2023-04-09T20:45:23.916Z,101973.41
2023-04-09T20:47:50.940Z,101965.28
2023-04-09T20:50:19.441Z,101965.28
2023-04-09T20:52:45.873Z,101965.56
2023-04-09T20:55:12.311Z,101959.38
2023-04-09T20:57:39.042Z,101952.16
2023-04-09T21:00:06.166Z,101957.78
2023-04-09T21:02:33.193Z,101962.78
2023-04-09T21:05:05.479Z,101960.72
2023-04-09T21:07:41.713Z,101955.38
2023-04-09T21:10:08.694Z,101950.59
2023-04-09T21:12:35.253Z,101945.19
2023-04-09T21:15:02.609Z,101944.78
2023-04-09T21:17:29.386Z,101954.56
2023-04-09T21:19:56.611Z,101946.66
2023-04-09T21:22:23.922Z,101955.19
2023-04-09T21:24:54.053Z,101952.09
2023-04-09T21:27:20.758Z,101948.81
2023-04-09T21:29:47.171Z,101952.34
2023-04-09T21:32:15.501Z,101949.91
2023-04-09T21:34:42.214Z,101940.59
2023-04-09T21:37:08.636Z,101931.25
2023-04-09T21:39:35.526Z,101936.09
2023-04-09T21:42:02.759Z,101934.41
2023-04-09T21:44:30.140Z,101933.00
2023-04-09T21:46:56.534Z,101932.38
2023-04-09T21:49:23.038Z,101930.31
2023-04-09T21:51:49.491Z,101927.00
2023-04-09T21:54:16.266Z,101932.81
2023-04-09T21:56:42.876Z,101926.81
2023-04-09T21:59:09.671Z,101934.88
2023-04-09T22:01:36.248Z,101935.66
2023-04-09T22:04:02.997Z,101934.41
2023-04-09T22:06:29.956Z,101934.25
2023-04-09T22:08:58.025Z,101934.28
2023-04-09T22:11:29.493Z,101937.88
2023-04-09T22:13:57.308Z,101933.31
2023-04-09T22:16:25.286Z,101929.78
2023-04-09T22:18:52.592Z,101923.31
2023-04-09T22:21:19.265Z,101938.09
2023-04-09T22:23:46.154Z,101930.00
2023-04-09T22:26:13.011Z,101927.13
2023-04-09T22:28:39.603Z,101921.75
2023-04-09T22:31:06.355Z,101930.25
2023-04-09T22:33:33.485Z,101927.78
2023-04-09T22:36:00.035Z,101927.97
2023-04-09T22:38:28.013Z,101920.88
2023-04-09T22:40:54.544Z,101921.91
2023-04-09T22:43:21.177Z,101921.06
2023-04-09T22:45:52.204Z,101917.31
2023-04-09T22:48:19.632Z,101913.59
2023-04-09T22:50:47.166Z,101914.22
2023-04-09T22:53:21.196Z,101911.94
2023-04-09T22:55:51.010Z,101918.75
2023-04-09T22:58:18.258Z,101916.47
2023-04-09T23:00:45.495Z,101909.78
2023-04-09T23:03:12.294Z,101911.28
2023-04-09T23:05:39.346Z,101910.84
2023-04-09T23:08:06.334Z,101913.34
2023-04-09T23:10:34.496Z,101909.78
2023-04-09T23:13:01.097Z,101909.59
2023-04-09T23:15:28.205Z,101910.69
2023-04-09T23:17:54.685Z,101911.53
2023-04-09T23:20:46.780Z,101912.78
2023-04-09T23:23:13.531Z,101922.97
2023-04-09T23:25:40.059Z,101926.09
2023-04-09T23:28:06.485Z,101930.25
2023-04-09T23:30:33.397Z,101933.19
2023-04-09T23:32:59.867Z,101917.84
2023-04-09T23:35:26.513Z,101917.44
2023-04-09T23:37:53.042Z,101929.06
2023-04-09T23:40:19.797Z,101920.97
2023-04-09T23:42:48.084Z,101908.97
2023-04-09T23:45:15.514Z,101916.03
2023-04-09T23:47:42.309Z,101926.59
2023-04-09T23:50:09.232Z,101922.25
2023-04-09T23:52:38.686Z,101919.34
2023-04-09T23:55:08.706Z,101918.09
2023-04-09T23:57:35.388Z,101918.28
